Millville Municipal Airport
KMIV : now visible

Airfield :











YOU CAN JOIN US ON...

 
LOGIN :

Register | Disclaimer

   EN    FR    IT 

 









Legend :    VFR   Marginal VFR   IFR   Intensive IFR   Very Intensive IFR
Visi :
Ceiling :
>= 8 km
>= 3000ft
5 to 8 km
1000 to 3000 ft
1500m to 5 km
500 to 1000 ft
800 to 1500m
200 to 500 ft
< 800m
< 200 ft
Symbols :   Thunderstorms  Fog  Heavy snow  Heavy precipitations  Wind > 20 kt






- Airport Elevation : 85 ft


KMIV - Millville Municipal

CURRENT METAR :
  • 212154Z AUTO 31011KT 10SM CLR 11/M03 A2995 RMK AO2 SLP142 T01111028 $

EXPIRED METARs :
  • 212054Z AUTO 30006KT 10SM CLR 11/M03 A2995 RMK AO2 SLP140 T01061028 56024 $
  • 211954Z AUTO 30008KT 10SM BKN120 11/M02 A2996 RMK AO2 SLP142 T01061022 $
  • 211854Z AUTO 29009KT 10SM CLR 11/M03 A2999 RMK AO2 SLP155 T01061028 $
  • 211754Z AUTO 29008KT 10SM CLR 11/M03 A3002 RMK AO2 SLP165 T01061033 10106 20072 58022 $

TAF KMIV
Valid from the 21 at 18:00 until the 22 at 18:00 UTC


211720Z 2118/2218 28010KT P6SM BKN080
FM212300 30010KT P6SM BKN250
FM220200 VRB05KT P6SM SCT250
FM221400 33008KT P6SM SKC
KZDC FIR / North America



MET'MAP, your aeronautical weather chart ! - Copyright ORBIFLY December 2007 - Disclaimer

ORBIFLY MET'MAP TEAM :

Programming & Development : Alexandra Zaïnal
Original concept : Baudouin d'Aumeries
Technical & hardware support : Manuel Goepfert
Assistance : Marc-Olivier Méhu




SOURCES & CREDITS :

   NOAA       Earth
Advisory